This is the latest recevied weather packets stored in our database for station/object KB9VKQ-13. If no packets are shown the sender has not sent any weather packets the latest 1 day(s).
| Time | Temp. | Humidity | Pressure | Rain* | Wind** | Luminosity | Snow |
|---|---|---|---|---|---|---|---|
| 1778011690 | 10.56° C | - | 0 hPa | 1.02 mm | 2.68 m/s, 349° | - | - |
| 1778011060 | 10.56° C | - | 0 hPa | 0.76 mm | 1.34 m/s, 21° | - | - |
| 1778010430 | 10.56° C | - | 0 hPa | 0.51 mm | 1.79 m/s, 14° | - | - |
| 1778009830 | 10.56° C | - | 0 hPa | 0.51 mm | 2.24 m/s, 8° | - | - |
| 1778009230 | 11.11° C | - | 0 hPa | 0.25 mm | 2.68 m/s, 340° | - | - |
| 1778008630 | 11.11° C | - | 0 hPa | 0.25 mm | 2.24 m/s, 316° | - | - |
| 1778008000 | 11.11° C | - | 0 hPa | 0.25 mm | 2.68 m/s, 339° | - | - |
| 1778007370 | 11.67° C | - | 0 hPa | 0 mm | 1.34 m/s, 44° | - | - |
| 1778006740 | 11.67° C | - | 0 hPa | 0 mm | 2.68 m/s, 322° | - | - |
| 1778006110 | 12.22° C | - | 0 hPa | 0 mm | 0.89 m/s, 13° | - | - |
| 1778005510 | 12.78° C | - | 0 hPa | 0 mm | 1.34 m/s, 37° | - | - |
| 1778004910 | 12.78° C | - | 0 hPa | 0 mm | 1.79 m/s, 44° | - | - |
| 1778004310 | 12.78° C | - | 0 hPa | 0 mm | 1.34 m/s, 53° | - | - |
| 1778003680 | 12.78° C | - | 0 hPa | 0 mm | 1.34 m/s, 24° | - | - |
| 1778003080 | 12.78° C | - | 0 hPa | 0 mm | 1.79 m/s, 359° | - | - |
| 1778002450 | 13.33° C | - | 0 hPa | 0 mm | 1.34 m/s, 37° | - | - |
| 1778001820 | 13.89° C | - | 0 hPa | 0 mm | 1.34 m/s, 45° | - | - |
| 1778001190 | 13.89° C | - | 0 hPa | 0 mm | 2.24 m/s, 83° | - | - |
| 1778000560 | 13.33° C | - | 0 hPa | 0 mm | 1.34 m/s, 32° | - | - |
| 1777999930 | 12.78° C | - | 0 hPa | 0 mm | 3.13 m/s, 113° | - | - |
| 1777999300 | 12.78° C | - | 0 hPa | 0 mm | 2.24 m/s, 18° | - | - |
| 1777998700 | 12.78° C | - | 0 hPa | 0 mm | 3.13 m/s, 39° | - | - |
| 1777998070 | 12.22° C | - | 0 hPa | 0 mm | 2.68 m/s, 1° | - | - |
| 1777997470 | 12.22° C | - | 0 hPa | 0 mm | 2.24 m/s, 35° | - | - |
| 1777996840 | 12.78° C | - | 0 hPa | 0 mm | 2.68 m/s, 13° | - | - |
* Rain latest hour (hover to see other rain measurements)
** Current wind speed in m/s (hover to see current wind gust speed)